sensor_id;sensor_type;location;lat;lon;timestamp;P1;durP1;ratioP1;P2;durP2;ratioP2
39324;SDS011;25037;49.488;9.900;2022-09-01T00:00:59;4.88;;;4.38;;
39324;SDS011;25037;49.488;9.900;2022-09-01T00:03:27;5.97;;;4.78;;
39324;SDS011;25037;49.488;9.900;2022-09-01T00:05:53;4.88;;;4.38;;
39324;SDS011;25037;49.488;9.900;2022-09-01T00:08:21;5.22;;;4.60;;
39324;SDS011;25037;49.488;9.900;2022-09-01T00:10:47;5.53;;;4.30;;
39324;SDS011;25037;49.488;9.900;2022-09-01T00:13:13;6.20;;;4.75;;
39324;SDS011;25037;49.488;9.900;2022-09-01T00:15:39;6.22;;;4.90;;
39324;SDS011;25037;49.488;9.900;2022-09-01T00:18:05;5.63;;;4.45;;
39324;SDS011;25037;49.488;9.900;2022-09-01T00:20:30;7.05;;;4.40;;
39324;SDS011;25037;49.488;9.900;2022-09-01T00:22:56;5.90;;;4.15;;
39324;SDS011;25037;49.488;9.900;2022-09-01T00:25:24;6.72;;;4.28;;
39324;SDS011;25037;49.488;9.900;2022-09-01T00:27:50;6.38;;;4.93;;
39324;SDS011;25037;49.488;9.900;2022-09-01T00:30:16;6.25;;;5.20;;
39324;SDS011;25037;49.488;9.900;2022-09-01T00:32:42;7.38;;;5.10;;
39324;SDS011;25037;49.488;9.900;2022-09-01T00:35:11;6.90;;;5.07;;
39324;SDS011;25037;49.488;9.900;2022-09-01T00:37:37;6.88;;;4.60;;
39324;SDS011;25037;49.488;9.900;2022-09-01T00:40:03;6.13;;;4.25;;
39324;SDS011;25037;49.488;9.900;2022-09-01T00:42:30;5.78;;;4.00;;
39324;SDS011;25037;49.488;9.900;2022-09-01T00:44:55;4.90;;;4.10;;
39324;SDS011;25037;49.488;9.900;2022-09-01T00:47:21;5.32;;;4.35;;
39324;SDS011;25037;49.488;9.900;2022-09-01T00:49:47;5.60;;;4.50;;
39324;SDS011;25037;49.488;9.900;2022-09-01T00:52:16;5.95;;;4.50;;
39324;SDS011;25037;49.488;9.900;2022-09-01T00:54:50;7.15;;;5.07;;
39324;SDS011;25037;49.488;9.900;2022-09-01T00:59:45;5.40;;;4.47;;
39324;SDS011;25037;49.488;9.900;2022-09-01T01:02:16;5.88;;;5.10;;
39324;SDS011;25037;49.488;9.900;2022-09-01T01:04:42;6.35;;;4.70;;
39324;SDS011;25037;49.488;9.900;2022-09-01T01:07:08;6.80;;;5.47;;
39324;SDS011;25037;49.488;9.900;2022-09-01T01:09:37;5.93;;;5.15;;
39324;SDS011;25037;49.488;9.900;2022-09-01T01:12:06;6.10;;;4.68;;
39324;SDS011;25037;49.488;9.900;2022-09-01T01:14:35;6.43;;;4.95;;
39324;SDS011;25037;49.488;9.900;2022-09-01T01:17:03;7.63;;;5.07;;
39324;SDS011;25037;49.488;9.900;2022-09-01T01:22:40;6.60;;;5.03;;
39324;SDS011;25037;49.488;9.900;2022-09-01T01:25:49;6.60;;;4.75;;
39324;SDS011;25037;49.488;9.900;2022-09-01T01:28:20;9.35;;;5.80;;
39324;SDS011;25037;49.488;9.900;2022-09-01T01:30:59;5.60;;;4.93;;
39324;SDS011;25037;49.488;9.900;2022-09-01T01:33:33;6.25;;;4.70;;
39324;SDS011;25037;49.488;9.900;2022-09-01T01:36:04;7.30;;;4.75;;
39324;SDS011;25037;49.488;9.900;2022-09-01T01:38:31;6.65;;;4.45;;
39324;SDS011;25037;49.488;9.900;2022-09-01T01:40:59;5.13;;;4.63;;
39324;SDS011;25037;49.488;9.900;2022-09-01T01:43:26;6.65;;;4.85;;
39324;SDS011;25037;49.488;9.900;2022-09-01T01:45:54;5.20;;;4.70;;
39324;SDS011;25037;49.488;9.900;2022-09-01T01:48:22;5.35;;;4.55;;
39324;SDS011;25037;49.488;9.900;2022-09-01T01:50:49;6.85;;;5.18;;
39324;SDS011;25037;49.488;9.900;2022-09-01T01:53:16;5.70;;;4.47;;
39324;SDS011;25037;49.488;9.900;2022-09-01T01:55:44;6.18;;;5.47;;
39324;SDS011;25037;49.488;9.900;2022-09-01T01:58:13;5.32;;;4.47;;
39324;SDS011;25037;49.488;9.900;2022-09-01T02:00:40;5.80;;;4.85;;
39324;SDS011;25037;49.488;9.900;2022-09-01T02:03:10;5.53;;;4.95;;
39324;SDS011;25037;49.488;9.900;2022-09-01T02:05:41;6.00;;;5.18;;
39324;SDS011;25037;49.488;9.900;2022-09-01T02:08:08;7.45;;;5.15;;
39324;SDS011;25037;49.488;9.900;2022-09-01T02:10:35;5.65;;;4.90;;
39324;SDS011;25037;49.488;9.900;2022-09-01T02:15:36;7.25;;;5.30;;
39324;SDS011;25037;49.488;9.900;2022-09-01T02:18:11;7.07;;;5.20;;
39324;SDS011;25037;49.488;9.900;2022-09-01T02:20:46;7.32;;;5.43;;
39324;SDS011;25037;49.488;9.900;2022-09-01T02:23:14;5.38;;;4.88;;
39324;SDS011;25037;49.488;9.900;2022-09-01T02:28:14;10.32;;;5.70;;
39324;SDS011;25037;49.488;9.900;2022-09-01T02:30:42;7.45;;;5.75;;
39324;SDS011;25037;49.488;9.900;2022-09-01T02:33:09;6.47;;;5.57;;
39324;SDS011;25037;49.488;9.900;2022-09-01T02:35:35;5.60;;;5.07;;
39324;SDS011;25037;49.488;9.900;2022-09-01T02:38:02;6.18;;;5.13;;
39324;SDS011;25037;49.488;9.900;2022-09-01T02:40:29;7.25;;;5.50;;
39324;SDS011;25037;49.488;9.900;2022-09-01T02:42:57;6.90;;;6.03;;
39324;SDS011;25037;49.488;9.900;2022-09-01T02:45:25;7.00;;;5.00;;
39324;SDS011;25037;49.488;9.900;2022-09-01T02:47:51;7.10;;;5.50;;
39324;SDS011;25037;49.488;9.900;2022-09-01T02:50:18;7.10;;;5.40;;
39324;SDS011;25037;49.488;9.900;2022-09-01T02:52:44;7.15;;;6.22;;
39324;SDS011;25037;49.488;9.900;2022-09-01T02:55:13;6.82;;;6.13;;
39324;SDS011;25037;49.488;9.900;2022-09-01T02:57:45;8.27;;;6.00;;
39324;SDS011;25037;49.488;9.900;2022-09-01T03:00:12;6.47;;;5.78;;
39324;SDS011;25037;49.488;9.900;2022-09-01T03:02:47;9.52;;;6.10;;
39324;SDS011;25037;49.488;9.900;2022-09-01T03:05:16;8.88;;;5.40;;
39324;SDS011;25037;49.488;9.900;2022-09-01T03:07:43;6.45;;;5.75;;
39324;SDS011;25037;49.488;9.900;2022-09-01T03:10:08;6.60;;;5.38;;
39324;SDS011;25037;49.488;9.900;2022-09-01T03:12:34;7.85;;;6.00;;
39324;SDS011;25037;49.488;9.900;2022-09-01T03:15:00;7.55;;;5.95;;
39324;SDS011;25037;49.488;9.900;2022-09-01T03:17:25;7.85;;;5.80;;
39324;SDS011;25037;49.488;9.900;2022-09-01T03:19:51;8.48;;;6.68;;
39324;SDS011;25037;49.488;9.900;2022-09-01T03:22:18;6.72;;;6.03;;
39324;SDS011;25037;49.488;9.900;2022-09-01T03:24:44;7.25;;;5.95;;
39324;SDS011;25037;49.488;9.900;2022-09-01T03:27:10;7.10;;;6.05;;
39324;SDS011;25037;49.488;9.900;2022-09-01T03:29:35;7.68;;;6.07;;
39324;SDS011;25037;49.488;9.900;2022-09-01T03:32:02;7.97;;;6.28;;
39324;SDS011;25037;49.488;9.900;2022-09-01T03:34:28;6.68;;;5.75;;
39324;SDS011;25037;49.488;9.900;2022-09-01T03:36:58;6.53;;;5.88;;
39324;SDS011;25037;49.488;9.900;2022-09-01T03:39:23;7.28;;;5.88;;
39324;SDS011;25037;49.488;9.900;2022-09-01T03:41:49;8.27;;;6.00;;
39324;SDS011;25037;49.488;9.900;2022-09-01T03:44:14;7.30;;;6.50;;
39324;SDS011;25037;49.488;9.900;2022-09-01T03:46:40;7.70;;;6.00;;
39324;SDS011;25037;49.488;9.900;2022-09-01T03:49:07;8.00;;;5.93;;
39324;SDS011;25037;49.488;9.900;2022-09-01T03:51:37;7.20;;;5.85;;
39324;SDS011;25037;49.488;9.900;2022-09-01T03:54:03;7.60;;;6.07;;
39324;SDS011;25037;49.488;9.900;2022-09-01T03:56:28;6.53;;;5.82;;
39324;SDS011;25037;49.488;9.900;2022-09-01T03:58:55;7.35;;;6.50;;
39324;SDS011;25037;49.488;9.900;2022-09-01T04:01:22;6.75;;;6.05;;
39324;SDS011;25037;49.488;9.900;2022-09-01T04:03:49;7.90;;;6.28;;
39324;SDS011;25037;49.488;9.900;2022-09-01T04:06:16;8.52;;;6.70;;
39324;SDS011;25037;49.488;9.900;2022-09-01T04:08:47;8.80;;;6.50;;
39324;SDS011;25037;49.488;9.900;2022-09-01T04:11:15;8.85;;;5.95;;
39324;SDS011;25037;49.488;9.900;2022-09-01T04:13:42;7.50;;;6.00;;
39324;SDS011;25037;49.488;9.900;2022-09-01T04:16:19;8.50;;;5.72;;
39324;SDS011;25037;49.488;9.900;2022-09-01T04:19:08;7.55;;;5.85;;
39324;SDS011;25037;49.488;9.900;2022-09-01T04:21:44;9.50;;;6.75;;
39324;SDS011;25037;49.488;9.900;2022-09-01T04:24:17;6.82;;;5.97;;
39324;SDS011;25037;49.488;9.900;2022-09-01T04:26:44;7.32;;;5.45;;
39324;SDS011;25037;49.488;9.900;2022-09-01T04:29:13;8.02;;;6.03;;
39324;SDS011;25037;49.488;9.900;2022-09-01T04:31:39;8.18;;;6.32;;
39324;SDS011;25037;49.488;9.900;2022-09-01T04:34:06;7.45;;;5.72;;
39324;SDS011;25037;49.488;9.900;2022-09-01T04:36:35;7.75;;;5.80;;
39324;SDS011;25037;49.488;9.900;2022-09-01T04:39:03;8.13;;;6.00;;
39324;SDS011;25037;49.488;9.900;2022-09-01T04:41:33;7.45;;;6.20;;
39324;SDS011;25037;49.488;9.900;2022-09-01T04:44:01;9.13;;;6.13;;
39324;SDS011;25037;49.488;9.900;2022-09-01T04:46:29;7.03;;;6.18;;
39324;SDS011;25037;49.488;9.900;2022-09-01T04:48:57;6.72;;;5.38;;
39324;SDS011;25037;49.488;9.900;2022-09-01T04:51:24;6.50;;;5.45;;
39324;SDS011;25037;49.488;9.900;2022-09-01T04:53:52;8.73;;;6.20;;
39324;SDS011;25037;49.488;9.900;2022-09-01T04:56:21;7.43;;;6.28;;
39324;SDS011;25037;49.488;9.900;2022-09-01T04:58:49;8.35;;;6.60;;
39324;SDS011;25037;49.488;9.900;2022-09-01T05:01:17;8.02;;;6.35;;
39324;SDS011;25037;49.488;9.900;2022-09-01T05:03:44;9.02;;;6.30;;
39324;SDS011;25037;49.488;9.900;2022-09-01T05:06:16;7.28;;;6.50;;
39324;SDS011;25037;49.488;9.900;2022-09-01T05:08:43;6.45;;;5.35;;
39324;SDS011;25037;49.488;9.900;2022-09-01T05:11:12;7.22;;;5.15;;
39324;SDS011;25037;49.488;9.900;2022-09-01T05:13:45;5.68;;;4.80;;
39324;SDS011;25037;49.488;9.900;2022-09-01T05:16:14;10.75;;;5.78;;
39324;SDS011;25037;49.488;9.900;2022-09-01T05:18:45;7.45;;;6.05;;
39324;SDS011;25037;49.488;9.900;2022-09-01T05:21:14;7.40;;;5.65;;
39324;SDS011;25037;49.488;9.900;2022-09-01T05:23:42;7.82;;;6.05;;
39324;SDS011;25037;49.488;9.900;2022-09-01T05:26:13;5.95;;;5.35;;
39324;SDS011;25037;49.488;9.900;2022-09-01T05:28:44;6.60;;;5.80;;
39324;SDS011;25037;49.488;9.900;2022-09-01T05:31:12;7.65;;;5.82;;
39324;SDS011;25037;49.488;9.900;2022-09-01T05:33:39;6.63;;;5.75;;
39324;SDS011;25037;49.488;9.900;2022-09-01T05:36:10;7.03;;;6.32;;
39324;SDS011;25037;49.488;9.900;2022-09-01T05:38:36;8.02;;;6.32;;
39324;SDS011;25037;49.488;9.900;2022-09-01T05:41:07;7.40;;;6.60;;
39324;SDS011;25037;49.488;9.900;2022-09-01T05:43:35;7.78;;;6.40;;
39324;SDS011;25037;49.488;9.900;2022-09-01T05:46:05;8.68;;;6.38;;
39324;SDS011;25037;49.488;9.900;2022-09-01T05:48:31;6.75;;;6.05;;
39324;SDS011;25037;49.488;9.900;2022-09-01T05:51:03;8.03;;;5.93;;
39324;SDS011;25037;49.488;9.900;2022-09-01T05:53:33;8.48;;;6.13;;
39324;SDS011;25037;49.488;9.900;2022-09-01T05:56:00;7.50;;;6.10;;
39324;SDS011;25037;49.488;9.900;2022-09-01T05:58:32;7.82;;;6.22;;
39324;SDS011;25037;49.488;9.900;2022-09-01T06:00:58;8.25;;;6.80;;
39324;SDS011;25037;49.488;9.900;2022-09-01T06:03:24;6.93;;;6.22;;
39324;SDS011;25037;49.488;9.900;2022-09-01T06:05:51;6.40;;;5.78;;
39324;SDS011;25037;49.488;9.900;2022-09-01T06:08:19;8.05;;;6.53;;
39324;SDS011;25037;49.488;9.900;2022-09-01T06:10:49;10.23;;;7.03;;
39324;SDS011;25037;49.488;9.900;2022-09-01T06:13:18;7.70;;;6.68;;
39324;SDS011;25037;49.488;9.900;2022-09-01T06:15:45;7.40;;;6.25;;
39324;SDS011;25037;49.488;9.900;2022-09-01T06:18:14;8.43;;;6.75;;
39324;SDS011;25037;49.488;9.900;2022-09-01T06:20:42;7.85;;;6.57;;
39324;SDS011;25037;49.488;9.900;2022-09-01T06:23:10;7.72;;;6.95;;
39324;SDS011;25037;49.488;9.900;2022-09-01T06:25:39;8.27;;;6.88;;
39324;SDS011;25037;49.488;9.900;2022-09-01T06:28:11;8.10;;;6.65;;
39324;SDS011;25037;49.488;9.900;2022-09-01T06:30:38;7.18;;;6.28;;
39324;SDS011;25037;49.488;9.900;2022-09-01T06:33:04;8.07;;;6.38;;
39324;SDS011;25037;49.488;9.900;2022-09-01T06:35:33;7.55;;;6.78;;
39324;SDS011;25037;49.488;9.900;2022-09-01T06:38:00;6.78;;;6.07;;
39324;SDS011;25037;49.488;9.900;2022-09-01T06:40:27;9.68;;;7.53;;
39324;SDS011;25037;49.488;9.900;2022-09-01T06:42:53;8.70;;;7.15;;
39324;SDS011;25037;49.488;9.900;2022-09-01T06:45:20;8.07;;;7.28;;
39324;SDS011;25037;49.488;9.900;2022-09-01T06:47:47;6.97;;;6.28;;
39324;SDS011;25037;49.488;9.900;2022-09-01T06:50:15;7.88;;;6.97;;
39324;SDS011;25037;49.488;9.900;2022-09-01T06:52:44;7.53;;;6.68;;
39324;SDS011;25037;49.488;9.900;2022-09-01T06:55:10;7.68;;;6.88;;
39324;SDS011;25037;49.488;9.900;2022-09-01T06:57:38;8.40;;;6.07;;
39324;SDS011;25037;49.488;9.900;2022-09-01T07:00:07;7.45;;;6.57;;
39324;SDS011;25037;49.488;9.900;2022-09-01T07:02:45;8.15;;;6.50;;
39324;SDS011;25037;49.488;9.900;2022-09-01T07:05:13;6.50;;;5.90;;
39324;SDS011;25037;49.488;9.900;2022-09-01T07:07:46;6.95;;;5.88;;
39324;SDS011;25037;49.488;9.900;2022-09-01T07:10:15;6.83;;;6.13;;
39324;SDS011;25037;49.488;9.900;2022-09-01T07:12:46;6.55;;;5.90;;
39324;SDS011;25037;49.488;9.900;2022-09-01T07:15:16;6.57;;;4.72;;
39324;SDS011;25037;49.488;9.900;2022-09-01T07:17:47;8.50;;;5.68;;
39324;SDS011;25037;49.488;9.900;2022-09-01T07:20:16;5.72;;;5.05;;
39324;SDS011;25037;49.488;9.900;2022-09-01T07:22:42;6.18;;;5.13;;
39324;SDS011;25037;49.488;9.900;2022-09-01T07:25:08;6.50;;;5.82;;
39324;SDS011;25037;49.488;9.900;2022-09-01T07:27:36;6.38;;;5.78;;
39324;SDS011;25037;49.488;9.900;2022-09-01T07:30:03;5.82;;;5.22;;
39324;SDS011;25037;49.488;9.900;2022-09-01T07:32:33;7.75;;;4.97;;
39324;SDS011;25037;49.488;9.900;2022-09-01T07:35:00;6.32;;;5.72;;
39324;SDS011;25037;49.488;9.900;2022-09-01T07:37:27;6.28;;;4.70;;
39324;SDS011;25037;49.488;9.900;2022-09-01T07:39:52;5.43;;;4.93;;
39324;SDS011;25037;49.488;9.900;2022-09-01T07:42:19;7.82;;;5.47;;
39324;SDS011;25037;49.488;9.900;2022-09-01T07:44:45;6.30;;;4.75;;
39324;SDS011;25037;49.488;9.900;2022-09-01T07:47:11;7.00;;;5.30;;
39324;SDS011;25037;49.488;9.900;2022-09-01T07:49:39;6.15;;;4.80;;
39324;SDS011;25037;49.488;9.900;2022-09-01T07:52:05;5.63;;;4.78;;
39324;SDS011;25037;49.488;9.900;2022-09-01T07:54:31;7.07;;;5.28;;
39324;SDS011;25037;49.488;9.900;2022-09-01T07:56:58;6.80;;;4.10;;
39324;SDS011;25037;49.488;9.900;2022-09-01T07:59:25;6.47;;;3.85;;
39324;SDS011;25037;49.488;9.900;2022-09-01T08:01:52;4.57;;;3.92;;
39324;SDS011;25037;49.488;9.900;2022-09-01T08:04:18;4.80;;;4.13;;
39324;SDS011;25037;49.488;9.900;2022-09-01T08:06:47;5.80;;;4.10;;
39324;SDS011;25037;49.488;9.900;2022-09-01T08:09:13;4.80;;;4.00;;
39324;SDS011;25037;49.488;9.900;2022-09-01T08:11:39;6.45;;;4.38;;
39324;SDS011;25037;49.488;9.900;2022-09-01T08:14:04;4.72;;;3.92;;
39324;SDS011;25037;49.488;9.900;2022-09-01T08:16:30;7.28;;;4.22;;
39324;SDS011;25037;49.488;9.900;2022-09-01T08:18:56;5.40;;;3.90;;
39324;SDS011;25037;49.488;9.900;2022-09-01T08:21:22;4.30;;;3.83;;
39324;SDS011;25037;49.488;9.900;2022-09-01T08:23:52;6.22;;;4.38;;
39324;SDS011;25037;49.488;9.900;2022-09-01T08:26:20;4.78;;;3.83;;
39324;SDS011;25037;49.488;9.900;2022-09-01T08:28:49;4.93;;;4.20;;
39324;SDS011;25037;49.488;9.900;2022-09-01T08:31:16;4.28;;;3.80;;
39324;SDS011;25037;49.488;9.900;2022-09-01T08:33:44;5.25;;;4.75;;
39324;SDS011;25037;49.488;9.900;2022-09-01T08:36:12;5.82;;;4.07;;
39324;SDS011;25037;49.488;9.900;2022-09-01T08:38:39;5.45;;;3.70;;
39324;SDS011;25037;49.488;9.900;2022-09-01T08:41:12;4.88;;;3.28;;
39324;SDS011;25037;49.488;9.900;2022-09-01T08:44:01;5.63;;;3.45;;
39324;SDS011;25037;49.488;9.900;2022-09-01T08:46:37;4.53;;;3.78;;
39324;SDS011;25037;49.488;9.900;2022-09-01T08:49:07;4.05;;;3.55;;
39324;SDS011;25037;49.488;9.900;2022-09-01T08:51:38;4.07;;;3.60;;
39324;SDS011;25037;49.488;9.900;2022-09-01T08:54:23;7.47;;;4.47;;
39324;SDS011;25037;49.488;9.900;2022-09-01T08:57:13;7.28;;;3.92;;
39324;SDS011;25037;49.488;9.900;2022-09-01T08:59:43;5.82;;;3.65;;
39324;SDS011;25037;49.488;9.900;2022-09-01T09:04:41;6.60;;;4.38;;
39324;SDS011;25037;49.488;9.900;2022-09-01T09:10:18;5.40;;;4.35;;
39324;SDS011;25037;49.488;9.900;2022-09-01T09:15:54;5.82;;;4.03;;
39324;SDS011;25037;49.488;9.900;2022-09-01T09:18:26;6.55;;;3.85;;
39324;SDS011;25037;49.488;9.900;2022-09-01T09:20:59;5.28;;;4.53;;
39324;SDS011;25037;49.488;9.900;2022-09-01T09:23:41;6.28;;;4.53;;
39324;SDS011;25037;49.488;9.900;2022-09-01T09:26:10;4.93;;;4.18;;
39324;SDS011;25037;49.488;9.900;2022-09-01T09:28:37;5.25;;;4.32;;
39324;SDS011;25037;49.488;9.900;2022-09-01T09:33:53;4.35;;;3.20;;
39324;SDS011;25037;49.488;9.900;2022-09-01T09:36:24;5.10;;;3.17;;
39324;SDS011;25037;49.488;9.900;2022-09-01T09:39:02;5.57;;;3.75;;
39324;SDS011;25037;49.488;9.900;2022-09-01T09:41:29;5.20;;;3.80;;
39324;SDS011;25037;49.488;9.900;2022-09-01T09:46:46;4.60;;;3.40;;
39324;SDS011;25037;49.488;9.900;2022-09-01T09:49:26;6.82;;;4.00;;
39324;SDS011;25037;49.488;9.900;2022-09-01T09:51:57;4.57;;;3.50;;
39324;SDS011;25037;49.488;9.900;2022-09-01T09:54:38;4.60;;;3.40;;
39324;SDS011;25037;49.488;9.900;2022-09-01T09:57:21;5.68;;;3.95;;
39324;SDS011;25037;49.488;9.900;2022-09-01T10:00:05;5.35;;;3.35;;
39324;SDS011;25037;49.488;9.900;2022-09-01T10:02:42;3.70;;;3.23;;
39324;SDS011;25037;49.488;9.900;2022-09-01T10:07:49;6.50;;;4.45;;
39324;SDS011;25037;49.488;9.900;2022-09-01T10:12:55;6.40;;;3.10;;
39324;SDS011;25037;49.488;9.900;2022-09-01T10:15:22;4.90;;;3.05;;
39324;SDS011;25037;49.488;9.900;2022-09-01T10:17:51;3.78;;;3.38;;
39324;SDS011;25037;49.488;9.900;2022-09-01T10:20:21;3.85;;;2.47;;
39324;SDS011;25037;49.488;9.900;2022-09-01T10:22:49;3.90;;;3.03;;
39324;SDS011;25037;49.488;9.900;2022-09-01T10:25:16;4.90;;;2.95;;
39324;SDS011;25037;49.488;9.900;2022-09-01T10:27:46;5.35;;;2.90;;
39324;SDS011;25037;49.488;9.900;2022-09-01T10:30:17;5.30;;;3.30;;
39324;SDS011;25037;49.488;9.900;2022-09-01T10:32:48;4.18;;;3.25;;
39324;SDS011;25037;49.488;9.900;2022-09-01T10:35:16;5.25;;;2.88;;
39324;SDS011;25037;49.488;9.900;2022-09-01T10:37:50;4.55;;;3.10;;
39324;SDS011;25037;49.488;9.900;2022-09-01T10:42:57;3.90;;;2.67;;
39324;SDS011;25037;49.488;9.900;2022-09-01T10:45:43;3.83;;;3.08;;
39324;SDS011;25037;49.488;9.900;2022-09-01T10:48:22;4.07;;;2.30;;
39324;SDS011;25037;49.488;9.900;2022-09-01T10:58:52;3.30;;;2.47;;
39324;SDS011;25037;49.488;9.900;2022-09-01T11:04:15;3.78;;;2.25;;
39324;SDS011;25037;49.488;9.900;2022-09-01T11:09:22;3.85;;;2.20;;
39324;SDS011;25037;49.488;9.900;2022-09-01T11:35:56;2.83;;;1.95;;
39324;SDS011;25037;49.488;9.900;2022-09-01T11:38:28;2.40;;;1.50;;
39324;SDS011;25037;49.488;9.900;2022-09-01T11:41:02;3.92;;;1.70;;
39324;SDS011;25037;49.488;9.900;2022-09-01T11:43:27;2.95;;;2.10;;
39324;SDS011;25037;49.488;9.900;2022-09-01T11:46:37;3.30;;;2.45;;
39324;SDS011;25037;49.488;9.900;2022-09-01T11:48:48;2.95;;;1.92;;
39324;SDS011;25037;49.488;9.900;2022-09-01T11:51:14;4.35;;;2.35;;
39324;SDS011;25037;49.488;9.900;2022-09-01T11:53:41;2.88;;;2.13;;
39324;SDS011;25037;49.488;9.900;2022-09-01T11:56:12;4.65;;;2.67;;
39324;SDS011;25037;49.488;9.900;2022-09-01T11:58:38;2.92;;;1.77;;
39324;SDS011;25037;49.488;9.900;2022-09-01T12:01:19;4.28;;;1.95;;
39324;SDS011;25037;49.488;9.900;2022-09-01T12:03:45;4.50;;;1.95;;
39324;SDS011;25037;49.488;9.900;2022-09-01T12:06:18;2.63;;;1.85;;
39324;SDS011;25037;49.488;9.900;2022-09-01T12:09:02;2.67;;;1.85;;
39324;SDS011;25037;49.488;9.900;2022-09-01T12:11:33;4.82;;;2.20;;
39324;SDS011;25037;49.488;9.900;2022-09-01T12:16:27;3.45;;;1.92;;
39324;SDS011;25037;49.488;9.900;2022-09-01T12:18:55;3.95;;;1.98;;
39324;SDS011;25037;49.488;9.900;2022-09-01T12:21:36;3.15;;;1.85;;
39324;SDS011;25037;49.488;9.900;2022-09-01T12:24:17;3.50;;;1.80;;
39324;SDS011;25037;49.488;9.900;2022-09-01T12:26:45;3.70;;;1.73;;
39324;SDS011;25037;49.488;9.900;2022-09-01T12:29:13;2.17;;;1.48;;
39324;SDS011;25037;49.488;9.900;2022-09-01T12:31:40;3.08;;;1.70;;
39324;SDS011;25037;49.488;9.900;2022-09-01T12:37:01;3.15;;;1.90;;
39324;SDS011;25037;49.488;9.900;2022-09-01T12:39:33;3.30;;;1.50;;
39324;SDS011;25037;49.488;9.900;2022-09-01T12:45:01;2.92;;;1.88;;
39324;SDS011;25037;49.488;9.900;2022-09-01T12:49:57;2.83;;;1.60;;
39324;SDS011;25037;49.488;9.900;2022-09-01T12:52:35;5.63;;;2.00;;
39324;SDS011;25037;49.488;9.900;2022-09-01T12:55:20;4.20;;;1.85;;
39324;SDS011;25037;49.488;9.900;2022-09-01T12:58:04;3.47;;;1.88;;
39324;SDS011;25037;49.488;9.900;2022-09-01T13:00:33;4.63;;;1.73;;
39324;SDS011;25037;49.488;9.900;2022-09-01T13:08:07;3.25;;;1.55;;
39324;SDS011;25037;49.488;9.900;2022-09-01T13:10:39;3.10;;;1.75;;
39324;SDS011;25037;49.488;9.900;2022-09-01T13:13:08;1.80;;;1.40;;
39324;SDS011;25037;49.488;9.900;2022-09-01T13:15:36;3.42;;;1.50;;
39324;SDS011;25037;49.488;9.900;2022-09-01T13:18:02;2.85;;;1.25;;
39324;SDS011;25037;49.488;9.900;2022-09-01T13:20:28;2.10;;;1.30;;
39324;SDS011;25037;49.488;9.900;2022-09-01T13:22:54;4.38;;;1.55;;
39324;SDS011;25037;49.488;9.900;2022-09-01T13:25:19;3.50;;;1.33;;
39324;SDS011;25037;49.488;9.900;2022-09-01T13:27:46;2.88;;;1.30;;
39324;SDS011;25037;49.488;9.900;2022-09-01T13:30:16;4.32;;;1.70;;
39324;SDS011;25037;49.488;9.900;2022-09-01T13:32:44;2.30;;;1.52;;
39324;SDS011;25037;49.488;9.900;2022-09-01T13:35:11;2.72;;;1.52;;
39324;SDS011;25037;49.488;9.900;2022-09-01T13:37:44;2.88;;;1.40;;
39324;SDS011;25037;49.488;9.900;2022-09-01T13:40:10;2.03;;;1.30;;
39324;SDS011;25037;49.488;9.900;2022-09-01T13:42:39;2.47;;;1.40;;
39324;SDS011;25037;49.488;9.900;2022-09-01T13:45:09;2.30;;;1.50;;
39324;SDS011;25037;49.488;9.900;2022-09-01T13:47:37;3.60;;;1.33;;
39324;SDS011;25037;49.488;9.900;2022-09-01T13:50:07;3.20;;;1.50;;
39324;SDS011;25037;49.488;9.900;2022-09-01T13:52:35;2.53;;;1.40;;
39324;SDS011;25037;49.488;9.900;2022-09-01T13:55:02;3.22;;;1.67;;
39324;SDS011;25037;49.488;9.900;2022-09-01T13:57:29;2.88;;;1.42;;
39324;SDS011;25037;49.488;9.900;2022-09-01T13:59:54;2.42;;;1.60;;
39324;SDS011;25037;49.488;9.900;2022-09-01T14:02:22;2.45;;;1.40;;
39324;SDS011;25037;49.488;9.900;2022-09-01T14:04:48;2.47;;;1.38;;
39324;SDS011;25037;49.488;9.900;2022-09-01T14:07:13;2.33;;;1.40;;
39324;SDS011;25037;49.488;9.900;2022-09-01T14:09:40;2.38;;;1.52;;
39324;SDS011;25037;49.488;9.900;2022-09-01T14:12:05;1.95;;;1.55;;
39324;SDS011;25037;49.488;9.900;2022-09-01T14:14:32;3.22;;;1.90;;
39324;SDS011;25037;49.488;9.900;2022-09-01T14:16:58;2.95;;;1.33;;
39324;SDS011;25037;49.488;9.900;2022-09-01T14:19:23;2.88;;;1.80;;
39324;SDS011;25037;49.488;9.900;2022-09-01T14:21:49;2.92;;;1.95;;
39324;SDS011;25037;49.488;9.900;2022-09-01T14:24:15;3.05;;;1.95;;
39324;SDS011;25037;49.488;9.900;2022-09-01T14:26:43;3.22;;;1.50;;
39324;SDS011;25037;49.488;9.900;2022-09-01T14:29:09;2.92;;;1.60;;
39324;SDS011;25037;49.488;9.900;2022-09-01T14:31:35;2.60;;;1.63;;
39324;SDS011;25037;49.488;9.900;2022-09-01T14:34:01;4.45;;;1.63;;
39324;SDS011;25037;49.488;9.900;2022-09-01T14:36:28;3.90;;;1.50;;
39324;SDS011;25037;49.488;9.900;2022-09-01T14:38:53;2.92;;;1.63;;
39324;SDS011;25037;49.488;9.900;2022-09-01T14:41:20;3.67;;;1.83;;
39324;SDS011;25037;49.488;9.900;2022-09-01T14:43:51;5.10;;;1.77;;
39324;SDS011;25037;49.488;9.900;2022-09-01T14:46:17;3.30;;;1.88;;
39324;SDS011;25037;49.488;9.900;2022-09-01T14:48:44;2.67;;;1.63;;
39324;SDS011;25037;49.488;9.900;2022-09-01T14:51:19;3.72;;;1.77;;
39324;SDS011;25037;49.488;9.900;2022-09-01T14:53:47;2.58;;;1.58;;
39324;SDS011;25037;49.488;9.900;2022-09-01T14:56:13;2.63;;;1.50;;
39324;SDS011;25037;49.488;9.900;2022-09-01T14:58:42;1.92;;;1.30;;
39324;SDS011;25037;49.488;9.900;2022-09-01T15:01:10;1.80;;;1.30;;
39324;SDS011;25037;49.488;9.900;2022-09-01T15:03:36;3.75;;;1.50;;
39324;SDS011;25037;49.488;9.900;2022-09-01T15:06:02;3.55;;;1.83;;
39324;SDS011;25037;49.488;9.900;2022-09-01T15:08:28;3.85;;;1.60;;
39324;SDS011;25037;49.488;9.900;2022-09-01T15:10:53;2.63;;;1.90;;
39324;SDS011;25037;49.488;9.900;2022-09-01T15:13:19;4.57;;;2.05;;
39324;SDS011;25037;49.488;9.900;2022-09-01T15:15:44;4.88;;;1.77;;
39324;SDS011;25037;49.488;9.900;2022-09-01T15:18:10;2.53;;;1.60;;
39324;SDS011;25037;49.488;9.900;2022-09-01T15:20:39;6.72;;;1.90;;
39324;SDS011;25037;49.488;9.900;2022-09-01T15:23:09;2.60;;;1.65;;
39324;SDS011;25037;49.488;9.900;2022-09-01T15:25:40;2.60;;;1.90;;
39324;SDS011;25037;49.488;9.900;2022-09-01T15:28:05;2.47;;;1.70;;
39324;SDS011;25037;49.488;9.900;2022-09-01T15:30:32;2.22;;;1.45;;
39324;SDS011;25037;49.488;9.900;2022-09-01T15:32:59;2.10;;;1.27;;
39324;SDS011;25037;49.488;9.900;2022-09-01T15:35:26;3.63;;;1.30;;
39324;SDS011;25037;49.488;9.900;2022-09-01T15:37:53;3.47;;;1.60;;
39324;SDS011;25037;49.488;9.900;2022-09-01T15:40:19;3.38;;;1.50;;
39324;SDS011;25037;49.488;9.900;2022-09-01T15:42:46;3.33;;;1.50;;
39324;SDS011;25037;49.488;9.900;2022-09-01T15:45:14;2.33;;;1.45;;
39324;SDS011;25037;49.488;9.900;2022-09-01T15:47:41;3.38;;;2.00;;
39324;SDS011;25037;49.488;9.900;2022-09-01T15:50:07;2.65;;;1.55;;
39324;SDS011;25037;49.488;9.900;2022-09-01T15:52:55;3.63;;;1.83;;
39324;SDS011;25037;49.488;9.900;2022-09-01T15:55:24;2.58;;;1.80;;
39324;SDS011;25037;49.488;9.900;2022-09-01T16:00:23;2.45;;;1.58;;
39324;SDS011;25037;49.488;9.900;2022-09-01T16:02:50;3.17;;;1.70;;
39324;SDS011;25037;49.488;9.900;2022-09-01T16:05:18;2.40;;;1.60;;
39324;SDS011;25037;49.488;9.900;2022-09-01T16:07:43;5.35;;;1.88;;
39324;SDS011;25037;49.488;9.900;2022-09-01T16:10:09;3.67;;;1.50;;
39324;SDS011;25037;49.488;9.900;2022-09-01T16:12:39;2.67;;;1.63;;
39324;SDS011;25037;49.488;9.900;2022-09-01T16:15:15;3.53;;;1.90;;
39324;SDS011;25037;49.488;9.900;2022-09-01T16:20:18;2.70;;;1.50;;
39324;SDS011;25037;49.488;9.900;2022-09-01T16:22:50;3.03;;;1.52;;
39324;SDS011;25037;49.488;9.900;2022-09-01T16:25:26;3.30;;;1.60;;
39324;SDS011;25037;49.488;9.900;2022-09-01T16:27:54;2.30;;;1.40;;
39324;SDS011;25037;49.488;9.900;2022-09-01T16:30:22;3.53;;;1.58;;